createdAt,value
2022-11-18T00:02:36.448Z,99311.00
2022-11-18T00:08:38.741Z,99320.00
2022-11-18T00:14:40.894Z,99321.00
2022-11-18T00:20:42.917Z,99335.00
2022-11-18T00:26:45.016Z,99328.00
2022-11-18T00:32:47.195Z,99313.00
2022-11-18T00:38:49.699Z,99337.00
2022-11-18T00:44:51.936Z,99343.00
2022-11-18T00:50:56.644Z,99344.00
2022-11-18T00:56:58.950Z,99341.00
2022-11-18T01:03:01.156Z,99353.00
2022-11-18T01:09:03.454Z,99350.00
2022-11-18T01:15:06.228Z,99349.00
2022-11-18T01:21:08.451Z,99328.00
2022-11-18T01:27:10.680Z,99333.00
2022-11-18T01:33:13.683Z,99336.00
2022-11-18T01:39:16.218Z,99333.00
2022-11-18T01:45:21.701Z,99328.00
2022-11-18T01:51:32.664Z,99320.00
2022-11-18T01:57:35.140Z,99326.00
2022-11-18T02:03:37.333Z,99306.00
2022-11-18T02:09:39.720Z,99322.00
2022-11-18T02:16:00.093Z,99336.00
2022-11-18T02:22:26.818Z,99332.00
2022-11-18T02:28:36.165Z,99341.00
2022-11-18T02:34:47.178Z,99354.00
2022-11-18T02:41:06.963Z,99356.00
2022-11-18T02:47:13.057Z,99360.00
2022-11-18T02:53:19.249Z,99361.00
2022-11-18T02:59:22.091Z,99363.00
2022-11-18T03:05:42.980Z,99363.00
2022-11-18T03:12:04.317Z,99361.00
2022-11-18T03:18:47.950Z,99356.00
2022-11-18T03:25:00.463Z,99351.00
2022-11-18T03:31:05.357Z,99350.00
2022-11-18T03:37:11.764Z,99350.00
2022-11-18T03:43:19.469Z,99334.00
2022-11-18T03:49:29.152Z,99330.00
2022-11-18T03:55:35.864Z,99343.00
2022-11-18T04:01:46.428Z,99362.00
2022-11-18T04:08:00.372Z,99364.00
2022-11-18T04:14:04.167Z,99354.00
2022-11-18T04:20:06.854Z,99358.00
2022-11-18T04:26:11.878Z,99375.00
2022-11-18T04:32:14.071Z,99380.00
2022-11-18T04:38:21.638Z,99384.00
2022-11-18T04:44:31.140Z,99390.00
2022-11-18T04:50:33.309Z,99386.00
2022-11-18T04:56:35.441Z,99379.00
2022-11-18T05:02:37.618Z,99402.00
2022-11-18T05:08:40.117Z,99393.00
2022-11-18T05:14:45.289Z,99398.00
2022-11-18T05:20:51.567Z,99401.00
2022-11-18T05:26:55.180Z,99400.00
2022-11-18T05:32:57.306Z,99405.00
2022-11-18T05:39:00.237Z,99415.00
2022-11-18T05:45:02.490Z,99410.00
2022-11-18T05:51:04.676Z,99420.00
2022-11-18T05:57:06.871Z,99412.00
2022-11-18T06:03:16.889Z,99418.00
2022-11-18T06:09:23.665Z,99412.00
2022-11-18T06:15:33.645Z,99423.00
2022-11-18T06:21:35.830Z,99423.00
2022-11-18T06:27:37.889Z,99419.00
2022-11-18T06:33:39.912Z,99420.00
2022-11-18T06:39:42.500Z,99417.00
2022-11-18T06:46:08.840Z,99412.00
2022-11-18T06:52:11.524Z,99398.00
2022-11-18T06:58:13.626Z,99401.00
2022-11-18T07:04:15.796Z,99383.00
2022-11-18T07:10:17.822Z,99369.00
2022-11-18T07:16:22.463Z,99349.00
2022-11-18T07:22:24.613Z,99391.00
2022-11-18T07:28:28.054Z,99378.00
2022-11-18T07:34:30.486Z,99318.00
2022-11-18T07:40:32.742Z,99325.00
2022-11-18T07:46:36.917Z,99340.00
2022-11-18T07:52:39.008Z,99348.00
2022-11-18T07:58:41.664Z,99309.00
2022-11-18T08:04:43.730Z,99332.00
2022-11-18T08:10:45.971Z,99314.00
2022-11-18T08:16:48.249Z,99335.00
2022-11-18T08:22:50.548Z,99322.00
2022-11-18T08:28:53.174Z,99342.00
2022-11-18T08:34:55.478Z,99375.00
2022-11-18T08:40:58.727Z,99387.00
2022-11-18T08:47:01.259Z,99381.00
2022-11-18T08:53:03.372Z,99376.00
2022-11-18T08:59:05.519Z,99389.00
2022-11-18T09:05:08.467Z,99388.00
2022-11-18T09:11:15.895Z,99393.00
2022-11-18T09:17:18.162Z,99384.00
2022-11-18T09:23:20.401Z,99368.00
2022-11-18T09:29:28.478Z,99367.00
2022-11-18T09:35:30.949Z,99364.00
2022-11-18T09:41:46.636Z,99347.00
2022-11-18T09:47:49.173Z,99327.00
2022-11-18T09:53:51.230Z,99313.00
2022-11-18T09:59:53.731Z,99288.00
2022-11-18T10:06:29.641Z,99284.00
2022-11-18T10:12:46.876Z,99278.00
2022-11-18T10:19:00.680Z,99259.00
2022-11-18T10:25:03.550Z,99244.00
2022-11-18T10:31:09.126Z,99240.00
2022-11-18T10:37:39.083Z,99223.00
2022-11-18T10:43:56.287Z,99212.00
2022-11-18T10:50:01.396Z,99214.00
2022-11-18T10:56:06.264Z,99212.00
2022-11-18T11:02:31.432Z,99195.00
2022-11-18T11:08:37.813Z,99201.00
2022-11-18T11:14:48.750Z,99197.00
2022-11-18T11:20:52.979Z,99209.00
2022-11-18T11:33:33.317Z,99217.00
2022-11-18T11:39:53.594Z,99214.00
2022-11-18T11:46:20.300Z,99194.00
2022-11-18T11:52:35.373Z,99193.00
2022-11-18T11:59:11.435Z,99185.00
2022-11-18T12:05:19.533Z,99179.00
2022-11-18T12:11:37.880Z,99172.00
2022-11-18T12:17:48.036Z,99190.00
2022-11-18T12:24:18.625Z,99183.00
2022-11-18T12:30:20.794Z,99187.00
2022-11-18T12:36:31.750Z,99164.00
2022-11-18T12:42:57.085Z,99169.00
2022-11-18T12:49:24.035Z,99153.00
2022-11-18T12:55:31.072Z,99160.00
2022-11-18T13:01:35.663Z,99156.00
2022-11-18T13:08:11.348Z,99155.00
2022-11-18T13:14:37.701Z,99138.00
2022-11-18T13:20:41.004Z,99146.00
2022-11-18T13:26:45.698Z,99146.00
2022-11-18T13:32:49.026Z,99159.00
2022-11-18T13:39:06.680Z,99148.00
2022-11-18T13:45:13.546Z,99147.00
2022-11-18T13:51:15.784Z,99147.00
2022-11-18T13:57:20.732Z,99129.00
2022-11-18T14:03:36.261Z,99126.00
2022-11-18T14:09:52.122Z,99143.00
2022-11-18T14:22:20.709Z,99112.00
2022-11-18T14:28:34.311Z,99120.00
2022-11-18T14:34:36.344Z,99091.00
2022-11-18T14:40:38.419Z,99092.00
2022-11-18T14:46:43.385Z,99081.00
2022-11-18T14:52:45.326Z,99071.00
2022-11-18T14:58:47.569Z,99052.00
2022-11-18T15:04:51.132Z,99058.00
2022-11-18T15:10:53.743Z,99037.00
2022-11-18T15:16:56.049Z,99034.00
2022-11-18T15:22:58.343Z,99037.00
2022-11-18T15:29:00.520Z,99033.00
2022-11-18T15:35:02.796Z,99027.00
2022-11-18T15:41:05.255Z,99032.00
2022-11-18T15:47:07.430Z,99010.00
2022-11-18T15:53:09.501Z,99002.00
2022-11-18T15:59:16.653Z,99007.00
2022-11-18T16:05:18.714Z,99007.00
2022-11-18T16:11:39.633Z,98992.00
2022-11-18T16:17:41.669Z,99009.00
2022-11-18T16:23:43.754Z,99006.00
2022-11-18T16:29:45.705Z,99003.00
2022-11-18T16:35:48.555Z,98993.00
2022-11-18T16:42:02.258Z,98964.00
2022-11-18T16:48:08.640Z,98953.00
2022-11-18T16:54:31.751Z,98966.00
2022-11-18T17:01:00.276Z,98972.00
2022-11-18T17:06:56.369Z,98977.00
2022-11-18T17:12:58.467Z,98967.00
2022-11-18T17:19:01.230Z,98960.00
2022-11-18T17:25:05.482Z,98932.00
2022-11-18T17:31:09.238Z,98934.00
2022-11-18T17:37:11.428Z,98927.00
2022-11-18T17:43:15.709Z,98931.00
2022-11-18T17:49:19.028Z,98932.00
2022-11-18T17:55:23.368Z,98911.00
2022-11-18T18:01:25.966Z,98896.00
2022-11-18T18:07:30.718Z,98888.00
2022-11-18T18:13:51.537Z,98915.00
2022-11-18T18:19:53.694Z,98903.00
2022-11-18T18:25:55.903Z,98931.00
2022-11-18T18:31:58.645Z,98933.00
2022-11-18T18:38:00.809Z,98937.00
2022-11-18T18:44:02.736Z,98927.00
2022-11-18T18:50:05.301Z,98927.00
2022-11-18T18:56:07.623Z,98922.00
2022-11-18T19:02:12.661Z,98904.00
2022-11-18T19:08:14.873Z,98916.00
2022-11-18T19:14:18.870Z,98921.00
2022-11-18T19:20:39.658Z,98926.00
2022-11-18T19:26:41.726Z,98922.00
2022-11-18T19:32:44.078Z,98932.00
2022-11-18T19:38:49.956Z,98911.00
2022-11-18T19:44:52.043Z,98931.00
2022-11-18T19:51:09.548Z,98911.00
2022-11-18T19:57:11.545Z,98889.00
2022-11-18T20:03:13.514Z,98895.00
2022-11-18T20:09:15.992Z,98888.00
2022-11-18T20:15:18.832Z,98858.00
2022-11-18T20:21:21.261Z,98843.00
2022-11-18T20:27:23.430Z,98828.00
2022-11-18T20:33:25.595Z,98834.00
2022-11-18T20:39:29.006Z,98886.00
2022-11-18T20:45:31.181Z,98937.00
2022-11-18T20:51:33.347Z,98929.00
2022-11-18T20:57:35.549Z,98910.00
2022-11-18T21:03:38.291Z,98907.00
2022-11-18T21:09:40.324Z,98904.00
2022-11-18T21:15:42.704Z,98906.00
2022-11-18T21:21:44.936Z,98903.00
2022-11-18T21:27:47.064Z,98907.00
2022-11-18T21:33:50.022Z,98895.00
2022-11-18T21:39:51.986Z,98900.00
2022-11-18T21:45:54.369Z,98934.00
2022-11-18T21:51:57.294Z,98942.00
2022-11-18T21:58:02.963Z,98934.00
2022-11-18T22:04:06.433Z,98942.00
2022-11-18T22:10:08.802Z,98966.00
2022-11-18T22:16:16.822Z,98961.00
2022-11-18T22:22:19.060Z,98955.00
2022-11-18T22:28:21.307Z,98981.00
2022-11-18T22:34:23.836Z,98997.00
2022-11-18T22:40:25.841Z,99009.00
2022-11-18T22:46:28.115Z,99013.00
2022-11-18T22:52:31.112Z,99013.00
2022-11-18T22:58:33.621Z,99023.00
2022-11-18T23:04:35.863Z,99017.00
2022-11-18T23:10:38.085Z,99008.00
2022-11-18T23:16:42.265Z,99020.00
2022-11-18T23:22:44.646Z,99027.00
2022-11-18T23:28:46.812Z,99028.00
2022-11-18T23:34:49.459Z,99015.00
2022-11-18T23:40:59.369Z,99030.00
2022-11-18T23:47:01.684Z,99041.00
2022-11-18T23:53:03.794Z,99032.00
2022-11-18T23:59:06.906Z,99028.00
